Time;durP1;ratioP1;P1;durP2;ratioP2;P2;SDS_P1;SDS_P2;PMS_P1;PMS_P2;Temp;Humidity;BMP_temperature;BMP_pressure;BME280_temperature;BME280_humidity;BME280_pressure;Samples;Min_cycle;Max_cycle;Signal;HPM_P1;HPM_P2
2022/01/19 00:02:19;;;;;;;55.17;24.70;;;;;;;28.78;59.19;101082.41;5080991;27;70319;-41
2022/01/19 00:04:51;;;;;;;43.83;23.75;;;;;;;28.82;58.76;101082.84;5081136;27;66534;-40
2022/01/19 00:07:21;;;;;;;48.80;23.83;;;;;;;28.83;58.97;101088.03;5075066;27;70085;-41
2022/01/19 00:09:51;;;;;;;42.20;23.58;;;;;;;28.87;59.37;101083.91;5080267;27;65557;-40
2022/01/19 00:12:21;;;;;;;45.30;22.92;;;;;;;28.92;59.34;101088.69;5082152;27;69940;-39
2022/01/19 00:14:52;;;;;;;45.15;23.50;;;;;;;28.91;59.33;101100.53;5080863;27;66769;-43
2022/01/19 00:17:22;;;;;;;58.10;24.50;;;;;;;28.93;59.28;101106.56;5076246;27;70181;-43
2022/01/19 00:19:52;;;;;;;75.40;25.77;;;;;;;28.92;59.29;101107.59;5075346;27;66511;-42
2022/01/19 00:22:22;;;;;;;72.57;26.02;;;;;;;28.92;59.42;101113.00;5073276;27;70513;-42
2022/01/19 00:24:52;;;;;;;61.30;26.05;;;;;;;28.91;59.55;101120.25;5076400;27;66773;-42
2022/01/19 00:27:23;;;;;;;63.80;25.75;;;;;;;28.94;59.83;101127.13;5077740;27;69979;-42
2022/01/19 00:29:53;;;;;;;62.17;26.08;;;;;;;28.96;59.82;101122.34;5078273;27;66708;-41
2022/01/19 00:32:24;;;;;;;56.20;24.45;;;;;;;28.98;60.31;101119.47;5060771;27;70580;-41
2022/01/19 00:34:55;;;;;;;41.17;22.92;;;;;;;28.98;59.80;101127.56;5079741;27;66444;-43
2022/01/19 00:37:25;;;;;;;56.03;25.92;;;;;;;29.00;60.43;101122.78;5083081;27;70797;-43
2022/01/19 00:39:56;;;;;;;52.05;25.42;;;;;;;29.03;60.03;101127.78;5074584;27;66260;-41
2022/01/19 00:42:26;;;;;;;40.13;20.38;;;;;;;29.04;60.26;101129.50;5081656;27;70353;-40
2022/01/19 00:44:56;;;;;;;29.63;19.70;;;;;;;29.03;60.26;101130.47;5081589;27;66536;-41
2022/01/19 00:47:27;;;;;;;30.77;19.90;;;;;;;29.10;59.73;101139.47;5081467;27;69748;-41
2022/01/19 00:49:57;;;;;;;25.30;18.52;;;;;;;29.10;59.55;101139.47;5079084;27;66335;-41
2022/01/19 00:52:27;;;;;;;27.15;18.52;;;;;;;29.14;59.45;101146.13;5084619;27;69914;-41
2022/01/19 00:54:58;;;;;;;28.52;19.35;;;;;;;29.17;59.25;101145.75;5090140;27;65930;-41
2022/01/19 00:57:28;;;;;;;30.13;18.60;;;;;;;29.20;59.15;101144.47;5083271;27;69360;-41
2022/01/19 00:59:58;;;;;;;25.48;18.35;;;;;;;29.18;58.77;101142.00;5086702;27;65807;-41
2022/01/19 01:02:31;;;;;;;33.53;20.38;;;;;;;29.14;58.90;101138.03;5081934;27;70183;-41
2022/01/19 01:05:02;;;;;;;31.63;19.08;;;;;;;29.22;58.64;101159.47;5083517;27;65941;-41
2022/01/19 01:07:33;;;;;;;22.75;18.60;;;;;;;29.26;58.13;101159.91;5080024;27;69979;-41
2022/01/19 01:10:04;;;;;;;25.90;18.75;;;;;;;29.27;58.34;101159.69;5080278;27;67141;-40
2022/01/19 01:12:52;;;;;;;24.90;17.15;;;;;;;29.28;57.83;101158.69;5078463;27;70550;-40
2022/01/19 01:20:39;;;;;;;25.30;18.90;;;;;;;29.26;57.30;101187.75;5079599;27;65713;-40
2022/01/19 01:23:10;;;;;;;20.85;17.60;;;;;;;29.32;57.65;101191.50;5072903;27;70414;-41
2022/01/19 01:25:40;;;;;;;19.10;17.00;;;;;;;29.33;57.16;101191.28;5064198;27;65894;-41
2022/01/19 01:28:11;;;;;;;18.95;16.98;;;;;;;29.34;56.99;101190.28;5062058;28;69713;-40
2022/01/19 01:30:43;;;;;;;20.55;17.25;;;;;;;29.34;56.78;101184.88;5077265;27;66546;-40
2022/01/19 01:33:13;;;;;;;19.88;17.00;;;;;;;29.35;57.20;101185.69;5076921;27;69620;-40
2022/01/19 01:35:44;;;;;;;19.40;16.80;;;;;;;29.38;56.72;101185.28;5083597;27;66569;-39
2022/01/19 01:38:14;;;;;;;21.77;17.20;;;;;;;29.35;56.62;101169.50;5073652;27;70924;-40
2022/01/19 01:41:09;;;;;;;19.75;17.30;;;;;;;29.39;56.38;101179.69;5075452;27;65796;-40
2022/01/19 01:43:42;;;;;;;19.17;16.48;;;;;;;29.26;56.89;101158.03;5078443;27;70512;-40
2022/01/19 01:46:31;;;;;;;23.38;17.13;;;;;;;29.42;56.24;101181.16;5082871;27;65601;-40
2022/01/19 01:49:03;;;;;;;21.67;16.67;;;;;;;29.44;56.33;101186.34;5074478;27;71122;-40
2022/01/19 01:54:23;;;;;;;18.00;16.05;;;;;;;29.44;55.85;101189.88;5073851;27;70375;-40
2022/01/19 01:56:54;;;;;;;19.58;17.02;;;;;;;29.44;55.85;101189.06;5077709;27;66386;-41
2022/01/19 01:59:24;;;;;;;20.65;16.95;;;;;;;29.48;56.25;101201.13;5084590;27;69978;-41
2022/01/19 02:02:21;;;;;;;18.13;16.23;;;;;;;29.38;55.80;101186.13;5070362;27;66612;-41
2022/01/19 02:04:53;;;;;;;23.42;16.73;;;;;;;29.49;55.95;101191.97;5084893;27;70494;-40
2022/01/19 02:10:06;;;;;;;20.40;16.15;;;;;;;29.47;55.70;101185.94;5080131;27;70568;-41
2022/01/19 02:23:55;;;;;;;17.70;16.02;;;;;;;29.54;54.99;101178.69;5077421;27;65893;-40
2022/01/19 02:26:43;;;;;;;19.52;16.35;;;;;;;29.58;55.46;101182.63;5077148;27;69581;-41
2022/01/19 02:29:47;;;;;;;17.70;16.10;;;;;;;29.58;54.70;101174.53;5062435;28;65646;-41
2022/01/19 02:40:35;;;;;;;18.58;16.63;;;;;;;29.65;54.50;101174.59;5058253;28;65970;-40
2022/01/19 02:43:08;;;;;;;18.90;15.23;;;;;;;29.67;54.88;101167.09;5075288;27;69577;-40
2022/01/19 02:51:16;;;;;;;16.42;14.80;;;;;;;29.69;54.88;101157.75;5074460;27;66358;-41
2022/01/19 02:53:47;;;;;;;16.80;15.10;;;;;;;29.73;54.56;101161.72;5077191;27;70551;-40
2022/01/19 02:56:26;;;;;;;21.75;15.55;;;;;;;29.74;54.66;101155.25;5069981;27;65821;-39
2022/01/19 02:59:12;;;;;;;24.45;16.77;;;;;;;29.76;54.17;101161.31;5078130;27;70811;-39
2022/01/19 03:10:10;;;;;;;16.90;15.18;;;;;;;29.83;53.82;101151.31;5077497;27;69763;-41
2022/01/19 03:12:40;;;;;;;16.45;14.40;;;;;;;29.86;54.29;101138.41;5079597;27;65566;-41
2022/01/19 03:15:15;;;;;;;18.17;16.27;;;;;;;29.89;54.22;101146.13;5078311;27;70243;-40
2022/01/19 03:17:45;;;;;;;23.20;14.95;;;;;;;29.91;53.77;101152.16;5079189;27;65414;-41
2022/01/19 03:20:29;;;;;;;16.88;15.13;;;;;;;29.92;54.09;101148.41;5066726;27;69940;-41
2022/01/19 03:23:20;;;;;;;21.63;15.43;;;;;;;29.91;53.84;101144.03;5075319;27;66541;-42
2022/01/19 03:25:53;;;;;;;16.67;14.95;;;;;;;29.98;53.73;101142.19;5081051;28;70271;-41
2022/01/19 03:28:24;;;;;;;16.45;14.77;;;;;;;29.97;53.60;101140.50;5078505;28;66300;-39
2022/01/19 03:30:55;;;;;;;16.92;14.85;;;;;;;29.99;53.65;101133.84;5072555;27;70087;-40
2022/01/19 03:33:32;;;;;;;17.60;14.65;;;;;;;30.02;53.33;101130.72;5079070;27;66650;-41
2022/01/19 03:36:02;;;;;;;16.65;15.15;;;;;;;30.03;53.29;101120.72;5071198;28;69139;-41
2022/01/19 03:38:32;;;;;;;15.63;14.18;;;;;;;30.05;53.29;101121.34;5089597;27;65578;-40
2022/01/19 03:41:03;;;;;;;17.85;14.95;;;;;;;30.07;53.60;101108.47;5078941;27;69264;-40
2022/01/19 03:43:33;;;;;;;21.73;15.98;;;;;;;30.10;53.28;101110.75;5078086;28;65471;-42
2022/01/19 03:46:15;;;;;;;18.00;16.15;;;;;;;29.98;53.18;101090.78;5078489;27;70272;-41
2022/01/19 03:51:21;;;;;;;17.02;15.35;;;;;;;30.17;52.94;101108.88;5076897;27;70311;-41
2022/01/19 03:53:54;;;;;;;18.75;15.60;;;;;;;30.15;52.96;101100.13;5078254;27;65456;-41
2022/01/19 03:56:24;;;;;;;16.67;15.05;;;;;;;30.23;53.22;101096.41;5079321;27;69429;-39
2022/01/19 03:58:55;;;;;;;16.67;15.13;;;;;;;30.25;53.22;101100.53;5075651;27;63776;-41
2022/01/19 04:01:26;;;;;;;16.65;15.15;;;;;;;30.25;52.96;101088.91;5067925;27;70083;-41
2022/01/19 04:06:40;;;;;;;16.92;15.30;;;;;;;30.34;52.67;101097.63;5076905;27;70152;-41
2022/01/19 04:09:11;;;;;;;19.15;17.00;;;;;;;30.34;52.56;101092.19;5077867;27;66011;-41
2022/01/19 04:11:43;;;;;;;16.48;14.82;;;;;;;30.32;52.96;101078.91;5038222;28;70385;-40
2022/01/19 04:14:27;;;;;;;18.98;16.95;;;;;;;30.41;52.56;101085.75;5069273;27;66213;-40
2022/01/19 04:17:09;;;;;;;18.80;16.90;;;;;;;30.21;52.03;101044.34;5077243;27;69903;-39
2022/01/19 04:19:45;;;;;;;19.92;16.65;;;;;;;30.42;52.31;101065.75;5063925;27;65518;-39
2022/01/19 04:22:25;;;;;;;18.88;17.02;;;;;;;30.45;52.67;101062.63;5038801;28;70114;-39
2022/01/19 04:25:03;;;;;;;20.00;17.67;;;;;;;30.50;52.32;101056.56;5077438;27;65793;-40
2022/01/19 04:27:34;;;;;;;18.08;16.20;;;;;;;30.53;52.61;101061.53;5077004;27;69202;-42
2022/01/19 04:30:11;;;;;;;28.08;19.77;;;;;;;30.51;51.90;101042.00;5078139;27;66521;-40
2022/01/19 04:35:43;;;;;;;24.02;19.60;;;;;;;30.59;51.82;101047.16;5051919;27;65727;-40
2022/01/19 04:47:08;;;;;;;26.27;20.73;;;;;;;30.63;51.83;101020.50;5077382;27;65586;-39
2022/01/19 05:06:49;;;;;;;27.83;20.48;;;;;;;30.81;51.65;100980.00;5078150;27;69214;-40
2022/01/19 05:13:25;;;;;;;22.38;19.55;;;;;;;30.88;51.72;100985.38;5077022;28;65903;-41
2022/01/19 05:15:08;;;;;;;22.95;19.42;;;;;;;30.92;51.65;100981.19;5059483;27;66109;-40
2022/01/19 05:17:40;;;;;;;25.02;20.13;;;;;;;30.90;51.85;100967.06;5063218;27;70120;-42
2022/01/19 05:20:12;;;;;;;23.85;19.67;;;;;;;30.96;51.18;100977.00;5076495;27;66312;-40
2022/01/19 05:22:43;;;;;;;22.02;19.35;;;;;;;31.00;51.51;100972.78;5092747;27;69054;-41
2022/01/19 05:25:18;;;;;;;27.00;20.17;;;;;;;31.00;51.36;100967.38;5081861;27;66951;-40
2022/01/19 05:27:59;;;;;;;28.10;20.80;;;;;;;31.01;51.42;100963.63;5074452;27;70425;-40
2022/01/19 05:30:29;;;;;;;20.65;18.35;;;;;;;31.04;51.32;100957.78;5064312;27;66264;-40
2022/01/19 05:33:01;;;;;;;21.83;19.35;;;;;;;31.06;51.42;100950.25;5076582;27;70162;-42
2022/01/19 05:35:31;;;;;;;22.83;19.13;;;;;;;31.10;50.99;100946.06;5080568;27;66151;-41
2022/01/19 05:38:28;;;;;;;21.10;18.80;;;;;;;31.11;51.21;100945.00;5055468;27;70080;-39
2022/01/19 05:41:24;;;;;;;21.55;18.48;;;;;;;31.11;51.34;100928.75;5061044;27;65928;-40
2022/01/19 05:43:54;;;;;;;21.65;19.33;;;;;;;31.16;51.60;100928.09;5078389;27;70202;-39
2022/01/19 05:46:25;;;;;;;26.30;19.67;;;;;;;31.13;51.41;100912.28;5075902;27;65730;-39
2022/01/19 05:48:55;;;;;;;29.77;20.52;;;;;;;31.15;51.47;100910.19;5077641;27;69155;-40
2022/01/19 05:51:26;;;;;;;23.88;19.48;;;;;;;31.12;51.19;100903.31;5054301;28;65797;-40
2022/01/19 05:53:56;;;;;;;24.95;19.60;;;;;;;31.21;51.25;100908.47;5069349;27;70255;-40
2022/01/19 05:56:27;;;;;;;21.65;18.25;;;;;;;31.19;51.03;100899.72;5077881;27;66184;-40
2022/01/19 05:59:08;;;;;;;23.05;18.73;;;;;;;31.24;51.51;100897.19;5077652;27;70279;-39
2022/01/19 06:01:40;;;;;;;21.05;18.88;;;;;;;31.22;51.07;100883.84;5074751;27;66296;-39
2022/01/19 06:04:11;;;;;;;;;;;;;;;30.99;51.86;100889.88;5078593;27;69567;-39
2022/01/19 06:06:53;;;;;;;28.55;19.00;;;;;;;31.23;51.25;100876.53;5076736;27;66777;-39
2022/01/19 06:10:06;;;;;;;23.25;19.15;;;;;;;31.25;51.36;100872.53;5063834;27;70231;-39
2022/01/19 06:12:46;;;;;;;21.02;18.48;;;;;;;31.24;50.99;100859.25;5070776;27;66293;-40
2022/01/19 06:15:17;;;;;;;27.73;19.40;;;;;;;31.22;51.12;100847.78;5065779;27;69990;-40
2022/01/19 06:17:47;;;;;;;27.98;19.80;;;;;;;31.26;50.93;100840.84;5078069;27;65727;-40
2022/01/19 06:20:18;;;;;;;22.63;18.52;;;;;;;31.28;50.98;100838.75;5058705;27;69645;-39
2022/01/19 06:22:48;;;;;;;19.70;17.45;;;;;;;31.31;50.67;100839.13;5082493;27;66644;-39
2022/01/19 06:25:19;;;;;;;20.48;18.13;;;;;;;31.31;51.16;100836.41;5083082;27;69954;-40
2022/01/19 06:27:49;;;;;;;25.15;18.38;;;;;;;31.35;50.65;100834.09;5087893;27;66746;-40
2022/01/19 06:30:20;;;;;;;20.27;18.23;;;;;;;31.32;51.03;100824.53;5082575;27;70767;-40
2022/01/19 06:32:51;;;;;;;23.63;18.98;;;;;;;31.35;50.62;100813.25;5084628;27;65673;-39
2022/01/19 06:35:23;;;;;;;24.23;18.40;;;;;;;31.36;51.10;100811.38;5081408;27;69881;-40
2022/01/19 06:38:17;;;;;;;27.05;17.85;;;;;;;31.38;50.84;100803.88;5076283;27;66991;-40
2022/01/19 06:40:54;;;;;;;24.13;18.25;;;;;;;31.41;51.08;100799.88;5081816;27;70393;-40
2022/01/19 06:43:25;;;;;;;24.42;18.05;;;;;;;31.40;50.57;100796.34;5080530;27;65885;-40
2022/01/19 06:45:58;;;;;;;23.15;17.27;;;;;;;31.42;50.71;100786.09;5090155;27;69836;-39
2022/01/19 06:48:29;;;;;;;19.48;17.08;;;;;;;31.44;50.50;100773.13;5090607;27;66103;-40
2022/01/19 06:51:01;;;;;;;22.17;17.67;;;;;;;31.44;50.55;100778.56;5083598;27;70637;-40
2022/01/19 06:53:45;;;;;;;23.70;17.63;;;;;;;31.47;50.29;100766.44;5070732;28;65567;-39
2022/01/19 06:56:21;;;;;;;20.92;17.05;;;;;;;31.48;50.28;100760.81;5078048;27;69798;-41
2022/01/19 06:59:00;;;;;;;19.40;17.45;;;;;;;31.52;50.16;100763.88;5047709;28;65211;-40
2022/01/19 07:01:38;;;;;;;24.10;17.25;;;;;;;31.50;50.80;100755.97;5080752;27;70079;-40
2022/01/19 07:04:19;;;;;;;19.40;17.40;;;;;;;31.47;50.61;100748.28;5079820;27;67133;-40
2022/01/19 07:06:50;;;;;;;25.10;16.80;;;;;;;31.54;50.18;100746.34;5058658;28;69140;-41
2022/01/19 07:09:35;;;;;;;18.90;17.00;;;;;;;31.54;50.67;100734.66;5074224;27;65369;-40
2022/01/19 07:12:06;;;;;;;19.77;17.13;;;;;;;31.57;50.69;100745.88;5077535;27;70363;-39
2022/01/19 07:14:39;;;;;;;20.95;16.73;;;;;;;31.59;50.51;100743.78;5072659;27;66375;-39
2022/01/19 07:17:10;;;;;;;18.42;16.58;;;;;;;31.60;50.23;100740.00;5081758;27;70925;-39
2022/01/19 07:19:40;;;;;;;19.40;17.35;;;;;;;31.60;50.50;100740.00;5061545;28;66010;-39
2022/01/19 07:22:15;;;;;;;19.80;17.83;;;;;;;31.62;50.27;100737.03;5080230;27;69607;-40
2022/01/19 07:24:47;;;;;;;19.55;17.55;;;;;;;31.66;50.36;100734.72;5078575;27;66045;-41
2022/01/19 07:27:17;;;;;;;23.05;16.10;;;;;;;31.68;50.33;100730.72;5072191;27;70103;-40
2022/01/19 07:29:48;;;;;;;21.00;17.00;;;;;;;31.70;49.81;100736.72;5074901;27;66089;-40
2022/01/19 07:32:19;;;;;;;20.45;16.65;;;;;;;31.73;49.93;100738.13;5077273;27;69194;-40
2022/01/19 07:34:50;;;;;;;17.13;15.52;;;;;;;31.73;50.25;100732.72;5063153;28;66720;-40
2022/01/19 07:37:20;;;;;;;22.60;15.65;;;;;;;31.75;49.79;100741.47;5080944;27;70198;-40
2022/01/19 07:39:51;;;;;;;22.20;16.85;;;;;;;31.71;50.06;100729.44;5068297;27;65682;-40
2022/01/19 07:42:21;;;;;;;17.60;15.75;;;;;;;31.74;49.78;100718.13;5092757;27;70106;-40
2022/01/19 07:45:30;;;;;;;20.08;16.10;;;;;;;31.76;49.84;100716.84;5037657;28;66772;-40
2022/01/19 07:48:36;;;;;;;18.27;15.20;;;;;;;31.73;49.91;100711.88;5023842;28;70703;-40
2022/01/19 07:51:29;;;;;;;17.73;15.98;;;;;;;31.79;50.08;100715.56;5072522;27;66962;-40
2022/01/19 07:54:28;;;;;;;18.80;16.65;;;;;;;31.80;49.98;100717.19;5066111;27;70040;-40
2022/01/19 07:57:18;;;;;;;15.88;14.43;;;;;;;31.78;50.04;100709.28;5076010;27;64979;-41
2022/01/19 08:00:00;;;;;;;17.02;15.27;;;;;;;31.80;50.18;100715.31;5077162;27;69798;-40
2022/01/19 08:02:47;;;;;;;15.95;14.52;;;;;;;31.85;49.77;100717.34;5079350;27;66216;-40
2022/01/19 08:05:46;;;;;;;16.70;15.02;;;;;;;31.80;50.23;100711.78;5078080;27;69428;-40
2022/01/19 08:08:16;;;;;;;16.50;14.82;;;;;;;31.85;50.32;100725.47;5075975;27;66094;-40
2022/01/19 08:10:48;;;;;;;16.85;15.20;;;;;;;31.86;50.12;100724.41;5077005;27;70390;-40
2022/01/19 08:13:18;;;;;;;17.13;14.63;;;;;;;31.86;49.89;100727.13;5072707;27;66964;-40
2022/01/19 08:15:49;;;;;;;19.67;15.30;;;;;;;31.86;49.79;100727.13;5075441;27;69716;-42
2022/01/19 08:18:20;;;;;;;17.00;15.45;;;;;;;31.87;49.90;100723.34;5078715;27;65552;-41
2022/01/19 08:20:50;;;;;;;17.08;15.32;;;;;;;31.88;50.34;100725.00;5072169;27;70779;-41
2022/01/19 08:23:25;;;;;;;20.33;15.30;;;;;;;31.89;49.71;100729.38;5073187;27;67099;-39
2022/01/19 08:25:58;;;;;;;16.52;14.88;;;;;;;31.87;49.95;100717.91;5077742;27;69463;-40
2022/01/19 08:28:29;;;;;;;18.73;14.20;;;;;;;31.90;50.17;100722.91;5072432;27;65263;-40
2022/01/19 08:31:00;;;;;;;17.85;15.07;;;;;;;31.91;50.03;100716.44;5078878;27;69987;-39
2022/01/19 08:33:49;;;;;;;16.38;14.70;;;;;;;31.90;49.62;100706.63;5076024;27;66158;-40
2022/01/19 08:36:26;;;;;;;16.15;14.63;;;;;;;31.89;49.54;100704.94;5077415;27;69701;-41
2022/01/19 08:39:12;;;;;;;17.63;15.82;;;;;;;31.91;49.92;100697.44;5078070;27;65779;-40
2022/01/19 08:41:44;;;;;;;18.38;14.77;;;;;;;31.90;49.80;100695.78;5069336;27;70224;-42
2022/01/19 08:44:15;;;;;;;17.33;15.02;;;;;;;31.91;49.87;100691.16;5076691;27;65749;-40
2022/01/19 08:46:53;;;;;;;18.38;16.42;;;;;;;31.92;49.98;100688.25;5078776;27;69960;-41
2022/01/19 08:50:03;;;;;;;16.35;14.82;;;;;;;31.91;50.03;100697.44;5076709;27;65797;-40
2022/01/19 08:52:59;;;;;;;23.42;16.05;;;;;;;31.91;50.23;100707.44;5070868;27;70459;-43
2022/01/19 08:55:41;;;;;;;17.60;15.90;;;;;;;31.91;49.94;100704.72;5079252;27;65922;-42
2022/01/19 08:58:13;;;;;;;19.13;15.82;;;;;;;31.91;50.24;100718.28;5074404;27;69578;-42
2022/01/19 09:00:46;;;;;;;17.95;16.15;;;;;;;31.91;50.11;100716.44;5078014;27;65477;-41
2022/01/19 09:03:18;;;;;;;22.50;16.02;;;;;;;31.75;50.26;100692.66;5077048;27;69567;-40
2022/01/19 09:05:48;;;;;;;18.85;15.63;;;;;;;31.91;50.38;100716.44;5078930;27;65342;-40
2022/01/19 09:08:18;;;;;;;21.10;17.45;;;;;;;31.93;50.56;100717.03;5076877;27;70077;-40
2022/01/19 09:10:50;;;;;;;23.85;17.30;;;;;;;31.92;50.28;100731.66;5077664;27;66421;-40
2022/01/19 09:13:21;;;;;;;21.83;17.27;;;;;;;31.92;50.10;100720.78;5077544;27;69765;-40
2022/01/19 09:15:51;;;;;;;26.73;18.25;;;;;;;31.86;50.89;100708.13;5078277;27;66159;-42
2022/01/19 09:18:21;;;;;;;24.77;17.33;;;;;;;31.93;50.42;100722.47;5078856;27;68123;-42
2022/01/19 09:20:52;;;;;;;19.80;17.08;;;;;;;31.90;50.86;100722.91;5074885;27;66616;-40
2022/01/19 09:23:22;;;;;;;22.58;17.67;;;;;;;31.88;50.77;100716.06;5065742;27;69614;-39
2022/01/19 09:25:53;;;;;;;22.77;17.35;;;;;;;31.92;50.84;100726.22;5071164;27;65759;-41
2022/01/19 09:28:23;;;;;;;26.90;19.45;;;;;;;31.91;51.07;100732.72;5079276;27;70589;-40
2022/01/19 09:30:53;;;;;;;23.50;17.50;;;;;;;31.91;50.61;100723.72;5079239;27;66585;-41
2022/01/19 09:33:25;;;;;;;24.90;17.55;;;;;;;31.90;50.81;100730.19;5078720;27;70047;-41
2022/01/19 09:38:33;;;;;;;24.40;17.13;;;;;;;31.71;51.04;100703.13;5078708;27;69896;-39
2022/01/19 09:41:08;;;;;;;21.33;16.88;;;;;;;31.91;51.10;100740.84;5078767;27;66654;-39
2022/01/19 09:43:38;;;;;;;21.55;16.60;;;;;;;31.88;51.06;100735.84;5077618;27;70324;-40
2022/01/19 09:46:08;;;;;;;21.00;16.80;;;;;;;31.88;50.96;100746.72;5083174;27;65631;-40
2022/01/19 09:48:40;;;;;;;23.83;17.40;;;;;;;31.89;51.05;100748.34;5073514;27;69636;-40
2022/01/19 09:51:12;;;;;;;19.23;15.73;;;;;;;31.87;51.50;100739.59;5079600;27;65525;-40
2022/01/19 09:53:42;;;;;;;23.50;16.83;;;;;;;31.85;51.20;100741.75;5074700;27;69278;-39
2022/01/19 09:56:16;;;;;;;20.58;16.60;;;;;;;31.52;51.09;100694.22;5077359;27;66824;-39
2022/01/19 09:58:48;;;;;;;21.13;16.27;;;;;;;31.87;51.27;100742.31;5078034;28;70223;-40
2022/01/19 10:01:23;;;;;;;27.65;16.42;;;;;;;31.66;51.31;100713.03;5081096;27;65951;-41
2022/01/19 10:03:54;;;;;;;18.65;15.20;;;;;;;31.86;51.27;100740.69;5077527;27;70484;-40
2022/01/19 10:06:24;;;;;;;19.23;15.20;;;;;;;31.84;51.40;100740.06;5080212;27;66889;-40
2022/01/19 10:08:57;;;;;;;31.92;16.35;;;;;;;31.81;51.54;100743.25;5080977;27;70522;-40
2022/01/19 10:17:09;;;;;;;16.38;14.52;;;;;;;31.80;51.27;100750.56;5083145;27;66523;-41
2022/01/19 10:19:43;;;;;;;18.92;15.95;;;;;;;31.81;51.18;100756.81;5079564;27;70069;-40
2022/01/19 10:22:16;;;;;;;16.25;14.43;;;;;;;31.58;51.35;100720.41;5060379;28;65125;-41
2022/01/19 10:24:56;;;;;;;18.80;14.40;;;;;;;31.74;51.68;100758.81;5078499;27;69518;-40
2022/01/19 10:27:34;;;;;;;22.52;14.75;;;;;;;31.76;51.43;100760.22;5083215;27;65585;-40
2022/01/19 10:30:04;;;;;;;15.65;14.02;;;;;;;31.74;51.41;100761.50;5070459;27;70163;-40
2022/01/19 10:32:40;;;;;;;20.30;15.02;;;;;;;31.75;51.52;100768.59;5076809;27;67113;-39
2022/01/19 10:35:24;;;;;;;16.55;14.25;;;;;;;31.73;51.46;100759.84;5075829;27;70210;-42
2022/01/19 10:38:27;;;;;;;17.98;14.10;;;;;;;31.60;52.06;100760.84;5075304;27;66419;-40
2022/01/19 10:41:07;;;;;;;15.93;12.43;;;;;;;31.56;51.36;100738.78;5064455;27;70265;-41
2022/01/19 10:43:44;;;;;;;16.05;9.98;;;;;;;31.54;51.58;100740.09;5077551;27;66571;-42
2022/01/19 10:46:25;;;;;;;15.38;9.27;;;;;;;31.67;52.26;100760.75;5068732;27;69961;-41
2022/01/19 10:49:10;;;;;;;16.27;9.13;;;;;;;31.66;52.00;100761.81;5071167;27;66354;-40
2022/01/19 10:51:47;;;;;;;16.33;9.00;;;;;;;31.66;51.56;100764.53;5075740;27;70095;-41
2022/01/19 10:54:25;;;;;;;18.02;8.55;;;;;;;31.64;51.80;100762.03;5082905;27;66211;-42
2022/01/19 10:57:00;;;;;;;15.68;8.43;;;;;;;31.59;51.83;100754.63;5078919;27;70205;-40
2022/01/19 10:59:50;;;;;;;11.13;6.85;;;;;;;31.56;52.10;100754.22;5083011;27;66460;-40
2022/01/19 11:02:22;;;;;;;16.15;7.90;;;;;;;31.58;52.12;100757.53;5076458;27;70383;-39
2022/01/19 11:04:52;;;;;;;13.10;7.78;;;;;;;31.60;52.37;100769.00;5079936;27;65458;-40
2022/01/19 11:07:22;;;;;;;19.88;8.48;;;;;;;31.58;52.69;100769.22;5079386;27;69287;-40
2022/01/19 11:10:10;;;;;;;13.30;7.63;;;;;;;31.60;52.85;100769.00;5082449;27;66020;-40
2022/01/19 11:12:49;;;;;;;13.85;7.50;;;;;;;31.60;52.64;100777.94;5075853;27;70224;-41
2022/01/19 11:15:20;;;;;;;15.27;7.03;;;;;;;31.60;52.89;100786.09;5065155;27;66166;-41
2022/01/19 11:17:50;;;;;;;18.27;7.57;;;;;;;31.58;52.63;100790.91;5078673;27;70194;-41
2022/01/19 11:20:24;;;;;;;10.40;6.82;;;;;;;31.36;52.43;100749.88;5079414;27;66065;-40
2022/01/19 11:23:16;;;;;;;16.48;7.43;;;;;;;31.53;52.17;100793.47;5077641;27;70266;-41
2022/01/19 11:25:59;;;;;;;17.27;8.13;;;;;;;31.52;51.67;100802.66;5081279;27;66141;-41
2022/01/19 11:28:36;;;;;;;19.30;7.20;;;;;;;31.56;51.72;100809.25;5061639;28;70455;-40
2022/01/19 11:31:16;;;;;;;12.60;7.07;;;;;;;31.37;51.87;100783.22;5078654;27;65519;-42
2022/01/19 11:33:56;;;;;;;15.48;7.35;;;;;;;31.51;51.18;100811.84;5078051;27;70113;-42
2022/01/19 11:36:34;;;;;;;15.35;7.57;;;;;;;31.19;52.17;100753.41;5070423;27;66204;-47
2022/01/19 11:39:20;;;;;;;19.10;8.38;;;;;;;31.36;51.50;100787.00;5075756;27;69470;-41
2022/01/19 11:41:54;;;;;;;22.00;7.78;;;;;;;31.48;51.10;100814.16;5075636;27;64633;-42
2022/01/19 11:44:35;;;;;;;9.43;6.65;;;;;;;31.42;51.82;100807.78;5076655;27;69947;-40
2022/01/19 11:47:22;;;;;;;11.98;8.25;;;;;;;31.39;52.20;100809.03;5074717;27;66700;-41
2022/01/19 11:49:57;;;;;;;19.95;9.35;;;;;;;31.43;51.97;100819.47;5080968;27;69514;-42
2022/01/19 11:52:39;;;;;;;19.73;9.07;;;;;;;31.42;52.33;100813.19;5075251;27;65414;-40
2022/01/19 11:55:15;;;;;;;20.60;9.25;;;;;;;31.31;51.93;100803.88;5077303;27;70053;-40
2022/01/19 11:57:49;;;;;;;20.23;9.55;;;;;;;30.95;51.88;100750.50;5078564;27;66390;-39
2022/01/19 12:00:32;;;;;;;22.70;10.77;;;;;;;31.18;52.24;100801.34;5081856;27;70266;-40
2022/01/19 12:03:25;;;;;;;24.73;10.10;;;;;;;31.28;52.62;100833.34;5078458;27;65491;-40
2022/01/19 12:06:45;;;;;;;31.70;10.80;;;;;;;31.13;53.90;100839.94;5076624;27;70206;-41
2022/01/19 12:09:17;;;;;;;31.92;11.15;;;;;;;31.11;53.53;100849.34;5072986;27;66433;-43
2022/01/19 12:11:52;;;;;;;20.67;11.50;;;;;;;31.00;54.34;100842.75;5078124;27;69439;-42
2022/01/19 12:14:34;;;;;;;24.95;11.48;;;;;;;30.95;54.58;100845.31;5076562;27;66287;-43
2022/01/19 12:17:09;;;;;;;28.08;12.05;;;;;;;30.87;54.67;100854.56;5069709;27;69836;-42
2022/01/19 12:19:44;;;;;;;29.92;11.45;;;;;;;30.48;55.00;100791.50;5075218;27;65501;-42
2022/01/19 12:22:22;;;;;;;33.22;10.77;;;;;;;30.60;55.29;100824.13;5072563;27;70453;-46
2022/01/19 12:25:08;;;;;;;19.85;11.45;;;;;;;30.69;55.48;100857.97;5070409;27;66153;-42
2022/01/19 12:27:50;;;;;;;35.88;12.18;;;;;;;30.66;56.00;100866.53;5054598;28;69986;-43
2022/01/19 12:30:22;;;;;;;22.20;10.98;;;;;;;30.62;56.46;100868.06;5076409;27;65581;-42
2022/01/19 12:33:03;;;;;;;30.92;11.73;;;;;;;30.62;57.80;100872.59;5069678;27;69465;-41
2022/01/19 12:35:37;;;;;;;21.15;11.52;;;;;;;30.44;57.30;100843.59;5073808;27;65627;-42
2022/01/19 12:38:23;;;;;;;22.33;11.18;;;;;;;30.60;58.69;100875.56;5076273;27;69499;-40
2022/01/19 12:40:57;;;;;;;25.77;11.57;;;;;;;30.60;58.35;100869.31;5074050;27;65620;-40
2022/01/19 12:43:37;;;;;;;38.28;12.57;;;;;;;30.49;58.93;100847.31;5075845;27;70662;-42
2022/01/19 12:46:10;;;;;;;22.17;11.27;;;;;;;30.66;58.36;100890.91;5075180;27;66688;-41
2022/01/19 12:48:49;;;;;;;28.42;11.93;;;;;;;30.67;58.86;100902.56;5074141;27;69815;-42
2022/01/19 12:51:40;;;;;;;25.63;11.65;;;;;;;30.40;59.29;100864.03;5078695;27;66644;-40
2022/01/19 12:54:12;;;;;;;28.73;12.55;;;;;;;30.49;58.98;100868.13;5074280;27;70447;-41
2022/01/19 12:56:55;;;;;;;31.17;12.63;;;;;;;30.62;58.16;100905.09;5072579;27;66380;-41
2022/01/19 12:59:26;;;;;;;29.85;12.45;;;;;;;30.65;58.92;100910.94;5073219;27;69989;-40
2022/01/19 13:01:57;;;;;;;30.60;12.50;;;;;;;30.61;59.20;100898.03;5075057;27;66821;-41
2022/01/19 13:04:30;;;;;;;24.40;12.93;;;;;;;30.40;59.29;100864.03;5077358;27;69953;-41
2022/01/19 13:07:20;;;;;;;36.08;12.85;;;;;;;30.64;60.37;100914.66;5071281;27;65451;-42
2022/01/19 13:12:57;;;;;;;27.65;14.02;;;;;;;30.58;59.12;100904.72;5071883;27;66331;-42
2022/01/19 13:15:43;;;;;;;35.33;15.50;;;;;;;30.49;59.81;100908.72;5068005;27;70082;-44
2022/01/19 13:18:37;;;;;;;32.67;15.75;;;;;;;30.40;60.16;100904.63;5037064;28;65361;-41
2022/01/19 13:21:20;;;;;;;31.33;15.98;;;;;;;30.42;60.03;100918.75;5038541;28;70292;-42
2022/01/19 13:24:26;;;;;;;38.60;17.08;;;;;;;30.38;59.95;100915.66;5066280;27;65449;-41